Time;durP1;ratioP1;P1;durP2;ratioP2;P2;SDS_P1;SDS_P2;PMS_P1;PMS_P2;Temp;Humidity;BMP_temperature;BMP_pressure;BME280_temperature;BME280_humidity;BME280_pressure;Samples;Min_cycle;Max_cycle;Signal;HPM_P1;HPM_P2
2023/07/19 00:01:48;;;;;;;;;;;;;;;16.66;74.90;101447.13;5058160;28;20011;-48
2023/07/19 00:04:14;;;;;;;;;;;;;;;16.59;75.52;101441.84;5037762;28;20010;-45
2023/07/19 00:06:39;;;;;;;;;;;;;;;16.56;76.22;101436.63;5058146;27;19920;-46
2023/07/19 00:09:04;;;;;;;;;;;;;;;16.54;76.77;101445.25;5053311;28;19928;-49
2023/07/19 00:11:30;;;;;;;;;;;;;;;16.48;75.74;101430.44;5056035;28;19928;-46
2023/07/19 00:13:55;;;;;;;;;;;;;;;16.45;77.10;101430.44;5059024;28;19924;-45
2023/07/19 00:16:20;;;;;;;;;;;;;;;16.42;77.08;101426.91;5055239;27;19981;-47
2023/07/19 00:18:46;;;;;;;;;;;;;;;16.38;77.52;101428.63;5057644;28;19972;-46
2023/07/19 00:21:11;;;;;;;;;;;;;;;16.32;77.25;101423.34;5056370;28;20530;-46
2023/07/19 00:23:38;;;;;;;;;;;;;;;16.28;76.76;101431.94;5059757;28;19932;-45
2023/07/19 00:26:03;;;;;;;;;;;;;;;16.24;77.23;101435.31;5058012;28;20449;-48
2023/07/19 00:28:28;;;;;;;;;;;;;;;16.18;76.06;101422.25;5040570;28;20007;-46
2023/07/19 00:31:00;;;;;;;;;;;;;;;16.13;76.98;101418.72;5057670;28;19921;-46
2023/07/19 00:33:26;;;;;;;;;;;;;;;16.07;77.34;101410.00;5057150;28;19920;-45
2023/07/19 00:35:51;;;;;;;;;;;;;;;16.07;78.42;101410.00;5060343;28;19925;-46
2023/07/19 00:38:17;;;;;;;;;;;;;;;16.08;78.82;101416.97;5056878;28;19928;-49
2023/07/19 00:40:42;;;;;;;;;;;;;;;16.05;77.08;101406.53;5059442;28;19932;-47
2023/07/19 00:43:08;;;;;;;;;;;;;;;16.03;78.83;101397.84;5059625;28;19934;-48
2023/07/19 00:45:33;;;;;;;;;;;;;;;16.01;79.01;101402.13;5038735;28;19925;-48
2023/07/19 00:47:59;;;;;;;;;;;;;;;15.99;78.26;101390.88;5054973;28;19931;-46
2023/07/19 00:50:24;;;;;;;;;;;;;;;15.95;79.19;101390.78;5058601;28;20328;-47
2023/07/19 00:52:50;;;;;;;;;;;;;;;15.93;78.77;101397.69;5054187;28;19920;-48
2023/07/19 00:55:15;;;;;;;;;;;;;;;15.91;79.05;101396.81;5055637;28;19942;-47
2023/07/19 00:57:40;;;;;;;;;;;;;;;15.87;79.13;101393.28;5057662;27;19928;-47
2023/07/19 01:00:06;;;;;;;;;;;;;;;15.84;79.49;101390.66;5054626;28;19929;-49
2023/07/19 01:02:32;;;;;;;;;;;;;;;15.83;80.48;101388.91;5054431;28;19971;-49
2023/07/19 01:04:57;;;;;;;;;;;;;;;15.81;79.20;101390.59;5057656;28;19968;-45
2023/07/19 01:07:23;;;;;;;;;;;;;;;15.78;79.94;101385.38;5056327;28;19924;-46
2023/07/19 01:09:49;;;;;;;;;;;;;;;15.75;78.73;101391.38;5056981;28;19925;-46
2023/07/19 01:12:14;;;;;;;;;;;;;;;15.74;80.05;101393.97;5056073;27;20573;-46
2023/07/19 01:14:39;;;;;;;;;;;;;;;15.69;80.62;101385.22;5055653;28;19975;-48
2023/07/19 01:17:04;;;;;;;;;;;;;;;15.66;83.69;101380.00;5054060;28;19940;-46
2023/07/19 01:19:30;;;;;;;;;;;;;;;15.61;81.94;101381.63;5057161;28;19936;-47
2023/07/19 01:21:55;;;;;;;;;;;;;;;15.56;81.37;101384.13;5059953;28;20031;-47
2023/07/19 01:24:21;;;;;;;;;;;;;;;15.54;82.92;101367.69;5057553;27;20297;-45
2023/07/19 01:26:46;;;;;;;;;;;;;;;15.53;84.51;101368.53;5054820;28;19948;-46
2023/07/19 01:29:12;;;;;;;;;;;;;;;15.49;84.98;101370.22;5053859;28;20679;-46
2023/07/19 01:31:37;;;;;;;;;;;;;;;15.46;82.29;101382.22;5057263;28;19924;-45
2023/07/19 01:34:02;;;;;;;;;;;;;;;15.43;84.90;101377.88;5056781;28;19968;-45
2023/07/19 01:36:27;;;;;;;;;;;;;;;15.38;84.04;101370.88;5057806;28;19925;-46
2023/07/19 01:38:53;;;;;;;;;;;;;;;15.35;84.74;101368.22;5056271;28;19943;-47
2023/07/19 01:41:19;;;;;;;;;;;;;;;15.33;84.42;101369.94;5053889;28;19968;-45
2023/07/19 01:43:44;;;;;;;;;;;;;;;15.31;83.83;101369.91;5056331;28;20374;-46
2023/07/19 01:46:09;;;;;;;;;;;;;;;15.30;83.42;101368.16;5037065;28;19927;-45
2023/07/19 01:48:35;;;;;;;;;;;;;;;15.31;83.78;101379.41;5057438;28;20371;-45
2023/07/19 01:51:02;;;;;;;;;;;;;;;15.31;83.77;101377.69;5054386;28;19986;-47
2023/07/19 01:53:27;;;;;;;;;;;;;;;15.33;83.99;101375.09;5057203;28;20469;-45
2023/07/19 01:55:54;;;;;;;;;;;;;;;15.35;83.96;101376.91;5056625;28;19920;-48
2023/07/19 01:58:20;;;;;;;;;;;;;;;15.36;84.12;101375.19;5055524;28;19921;-45
2023/07/19 02:00:45;;;;;;;;;;;;;;;15.36;84.21;101372.59;5053305;28;19951;-46
2023/07/19 02:03:10;;;;;;;;;;;;;;;15.36;84.20;101368.28;5056498;27;19937;-44
2023/07/19 02:05:35;;;;;;;;;;;;;;;15.34;84.16;101366.47;5058804;28;19920;-45
2023/07/19 02:08:01;;;;;;;;;;;;;;;15.32;83.27;101365.59;5040503;28;19936;-45
2023/07/19 02:10:26;;;;;;;;;;;;;;;15.31;83.74;101369.91;5054679;28;19934;-45
2023/07/19 02:12:51;;;;;;;;;;;;;;;15.31;83.27;101362.13;5055121;28;19924;-44
2023/07/19 02:15:17;;;;;;;;;;;;;;;15.29;84.31;101364.72;5054665;28;19925;-45
2023/07/19 02:17:42;;;;;;;;;;;;;;;15.29;84.81;101371.63;5059510;28;19921;-47
2023/07/19 02:20:07;;;;;;;;;;;;;;;15.25;83.32;101357.72;5055487;28;19927;-45
2023/07/19 02:22:33;;;;;;;;;;;;;;;15.23;85.47;101353.38;5055651;28;19925;-45
2023/07/19 02:24:58;;;;;;;;;;;;;;;15.19;84.88;101355.03;5053521;28;19943;-45
2023/07/19 02:27:23;;;;;;;;;;;;;;;15.17;84.87;101350.69;5062421;27;19965;-45
2023/07/19 02:29:48;;;;;;;;;;;;;;;15.16;85.05;101352.38;5061167;28;19965;-47
2023/07/19 02:32:14;;;;;;;;;;;;;;;15.14;85.37;101358.38;5059217;28;19931;-45
2023/07/19 02:34:39;;;;;;;;;;;;;;;15.15;83.64;101360.13;5059771;28;19928;-45
2023/07/19 02:37:04;;;;;;;;;;;;;;;15.15;85.57;101357.53;5041964;28;21178;-47
2023/07/19 02:39:30;;;;;;;;;;;;;;;15.13;85.06;101359.25;5058729;28;19929;-45
2023/07/19 02:41:56;;;;;;;;;;;;;;;15.14;85.21;101355.78;5041894;28;20400;-44
2023/07/19 02:44:21;;;;;;;;;;;;;;;15.15;86.56;101360.13;5058984;28;19963;-45
2023/07/19 02:46:47;;;;;;;;;;;;;;;15.16;84.88;101357.56;5059979;28;19964;-45
2023/07/19 02:49:12;;;;;;;;;;;;;;;15.17;88.43;101355.88;5057886;28;19920;-45
2023/07/19 02:51:38;;;;;;;;;;;;;;;15.15;85.65;101357.53;5061704;27;19928;-45
2023/07/19 02:54:03;;;;;;;;;;;;;;;15.14;86.56;101361.84;5059564;28;19947;-45
2023/07/19 02:56:28;;;;;;;;;;;;;;;15.15;86.56;101360.13;5059722;28;20473;-44
2023/07/19 02:58:53;;;;;;;;;;;;;;;15.16;85.67;101361.88;5057406;28;19925;-46
2023/07/19 03:01:19;;;;;;;;;;;;;;;15.18;86.64;101362.78;5061098;28;20374;-45
2023/07/19 03:03:44;;;;;;;;;;;;;;;15.20;86.76;101348.13;5058597;28;19932;-45
2023/07/19 03:06:10;;;;;;;;;;;;;;;15.20;85.66;101346.41;5058943;27;20407;-58
2023/07/19 03:08:36;;;;;;;;;;;;;;;15.23;85.88;101349.06;5062024;28;20138;-57
2023/07/19 03:11:01;;;;;;;;;;;;;;;15.25;86.74;101356.84;5058235;27;20589;-58
2023/07/19 03:13:26;;;;;;;;;;;;;;;15.27;86.56;101352.56;5060571;28;20301;-58
2023/07/19 03:15:52;;;;;;;;;;;;;;;15.27;86.27;101357.75;5056977;28;19928;-58
2023/07/19 03:18:17;;;;;;;;;;;;;;;15.27;85.19;101360.34;5043551;27;19929;-58
2023/07/19 03:20:42;;;;;;;;;;;;;;;15.27;85.53;101358.59;5059004;28;20049;-59
2023/07/19 03:23:08;;;;;;;;;;;;;;;15.29;86.93;101358.66;5058644;28;19931;-58
2023/07/19 03:25:33;;;;;;;;;;;;;;;15.30;86.10;101352.63;5057979;28;20342;-57
2023/07/19 03:27:59;;;;;;;;;;;;;;;15.33;86.19;101352.66;5058984;28;19936;-58
2023/07/19 03:30:24;;;;;;;;;;;;;;;15.36;86.61;101352.72;5059729;28;19921;-58
2023/07/19 03:32:49;;;;;;;;;;;;;;;15.40;85.83;101361.41;5042955;28;19932;-58
2023/07/19 03:35:15;;;;;;;;;;;;;;;15.42;87.64;101365.78;5057098;28;19940;-58
2023/07/19 03:37:44;;;;;;;;;;;;;;;15.43;83.16;101380.47;5056533;28;19921;-56
2023/07/19 03:40:10;;;;;;;;;;;;;;;15.43;89.54;101367.53;5055847;28;19920;-57
2023/07/19 03:42:36;;;;;;;;;;;;;;;15.42;89.15;101363.19;5060191;28;19921;-58
2023/07/19 03:45:01;;;;;;;;;;;;;;;15.42;88.52;101365.78;5039775;28;19952;-58
2023/07/19 03:47:26;;;;;;;;;;;;;;;15.42;88.66;101368.38;5059340;28;19931;-58
2023/07/19 03:49:52;;;;;;;;;;;;;;;15.42;89.40;101376.16;5059781;28;19939;-58
2023/07/19 03:52:17;;;;;;;;;;;;;;;15.41;88.86;101368.31;5038642;28;20007;-58
2023/07/19 03:54:42;;;;;;;;;;;;;;;15.39;89.04;101368.31;5059788;28;19928;-58
2023/07/19 03:57:07;;;;;;;;;;;;;;;15.38;89.83;101361.38;5057676;28;20588;-57
2023/07/19 03:59:33;;;;;;;;;;;;;;;15.37;89.33;101367.41;5060954;28;19929;-58
2023/07/19 04:01:58;;;;;;;;;;;;;;;15.37;89.81;101371.72;5058712;28;19928;-58
2023/07/19 04:04:23;;;;;;;;;;;;;;;15.35;86.19;101368.22;5058733;28;20027;-58
2023/07/19 04:06:48;;;;;;;;;;;;;;;15.33;89.87;101355.25;5057448;28;19924;-58
2023/07/19 04:09:14;;;;;;;;;;;;;;;15.30;88.93;101360.41;5059016;28;19924;-58
2023/07/19 04:11:39;;;;;;;;;;;;;;;15.28;88.31;101359.47;5059511;28;20007;-58
2023/07/19 04:14:04;;;;;;;;;;;;;;;15.27;86.68;101365.50;5053498;28;19990;-58
2023/07/19 04:16:29;;;;;;;;;;;;;;;15.26;89.08;101356.88;5057105;28;20597;-59
2023/07/19 04:18:54;;;;;;;;;;;;;;;15.27;88.75;101361.19;5057773;28;19973;-59
2023/07/19 04:21:20;;;;;;;;;;;;;;;15.28;87.63;101362.94;5057082;28;19925;-58
2023/07/19 04:23:45;;;;;;;;;;;;;;;15.28;88.82;101360.34;5060394;28;19925;-57
2023/07/19 04:26:10;;;;;;;;;;;;;;;15.30;87.87;101355.22;5057329;28;19924;-57
2023/07/19 04:28:35;;;;;;;;;;;;;;;15.31;88.45;101361.28;5053895;28;19975;-58
2023/07/19 04:31:01;;;;;;;;;;;;;;;15.34;89.11;101362.16;5034811;28;20011;-58
2023/07/19 04:33:26;;;;;;;;;;;;;;;15.37;90.02;101361.38;5051064;28;20382;-58
2023/07/19 04:35:51;;;;;;;;;;;;;;;15.38;90.85;101360.50;5052349;27;19929;-57
2023/07/19 04:38:17;;;;;;;;;;;;;;;15.39;89.02;101360.53;5035318;28;19928;-59
2023/07/19 04:40:42;;;;;;;;;;;;;;;15.43;88.59;101367.53;5058307;27;19980;-59
2023/07/19 04:43:07;;;;;;;;;;;;;;;15.46;88.50;101372.72;5059553;28;19956;-59
2023/07/19 04:45:32;;;;;;;;;;;;;;;15.48;88.33;101368.47;5055944;28;20065;-58
2023/07/19 04:47:58;;;;;;;;;;;;;;;15.53;88.83;101369.41;5054206;28;19924;-57
2023/07/19 04:50:24;;;;;;;;;;;;;;;15.58;87.67;101372.06;5053032;28;19924;-58
2023/07/19 04:52:50;;;;;;;;;;;;;;;15.63;88.55;101369.59;5050360;28;19924;-58
2023/07/19 04:55:15;;;;;;;;;;;;;;;15.66;87.51;101370.50;5052888;28;20421;-59
2023/07/19 04:57:41;;;;;;;;;;;;;;;15.71;87.74;101373.16;5035603;28;19933;-58
2023/07/19 05:00:11;;;;;;;;;;;;;;;15.75;87.58;101370.63;5053880;28;19925;-59
2023/07/19 05:02:37;;;;;;;;;;;;;;;15.80;88.90;101378.50;5052373;28;20350;-58
2023/07/19 05:05:02;;;;;;;;;;;;;;;15.86;86.56;101377.72;5055685;28;19968;-58
2023/07/19 05:07:27;;;;;;;;;;;;;;;15.95;87.66;101377.81;5054284;28;19927;-59
2023/07/19 05:09:52;;;;;;;;;;;;;;;16.04;86.73;101372.78;5054005;27;20390;-58
2023/07/19 05:12:18;;;;;;;;;;;;;;;16.14;86.57;101376.34;5054181;28;19933;-58
2023/07/19 05:14:43;;;;;;;;;;;;;;;16.23;87.03;101379.09;5051900;28;19920;-59
2023/07/19 05:17:08;;;;;;;;;;;;;;;16.33;86.37;101375.78;5053491;28;20386;-58
2023/07/19 05:19:34;;;;;;;;;;;;;;;16.43;85.76;101379.34;5053264;28;19924;-58
2023/07/19 05:21:59;;;;;;;;;;;;;;;16.51;85.26;101369.94;5056259;28;20003;-57
2023/07/19 05:24:24;;;;;;;;;;;;;;;16.61;84.35;101380.41;5060190;27;19964;-56
2023/07/19 05:26:50;;;;;;;;;;;;;;;16.70;82.77;101381.41;5060866;28;20271;-55
2023/07/19 05:29:15;;;;;;;;;;;;;;;16.82;82.84;101381.56;5062348;28;20016;-55
2023/07/19 05:31:40;;;;;;;;;;;;;;;16.91;84.18;101371.25;5061389;28;19951;-57
2023/07/19 05:34:05;;;;;;;;;;;;;;;17.01;82.13;101372.22;5063410;28;19917;-54
2023/07/19 05:36:31;;;;;;;;;;;;;;;17.10;81.67;101378.38;5045387;28;19936;-56
2023/07/19 05:38:56;;;;;;;;;;;;;;;17.23;81.87;101383.69;5063765;28;20298;-57
2023/07/19 05:41:21;;;;;;;;;;;;;;;17.34;80.70;101375.13;5063582;27;20302;-57
2023/07/19 05:43:47;;;;;;;;;;;;;;;17.47;81.44;101377.81;5063702;28;19961;-56
2023/07/19 05:46:12;;;;;;;;;;;;;;;17.59;80.50;101367.50;5063706;28;19924;-56
2023/07/19 05:48:37;;;;;;;;;;;;;;;17.72;80.51;101368.53;5063397;27;19925;-55
2023/07/19 05:51:03;;;;;;;;;;;;;;;17.87;80.11;101366.00;5061066;27;19916;-56
2023/07/19 05:53:28;;;;;;;;;;;;;;;17.97;78.82;101370.41;5059656;28;19913;-56
2023/07/19 05:55:54;;;;;;;;;;;;;;;18.06;77.15;101373.06;5063394;28;19968;-58
2023/07/19 05:58:19;;;;;;;;;;;;;;;18.12;78.03;101370.47;5058171;28;19912;-56
2023/07/19 06:00:44;;;;;;;;;;;;;;;18.14;78.41;101368.78;5066202;28;19939;-57
2023/07/19 06:03:10;;;;;;;;;;;;;;;18.18;78.07;101380.06;5065775;28;19927;-57
2023/07/19 06:05:35;;;;;;;;;;;;;;;18.18;77.29;101370.50;5063783;27;19924;-56
2023/07/19 06:08:00;;;;;;;;;;;;;;;18.22;77.80;101372.28;5061802;28;19917;-56
2023/07/19 06:10:25;;;;;;;;;;;;;;;18.28;76.87;101373.19;5067967;28;19923;-56
2023/07/19 06:12:51;;;;;;;;;;;;;;;18.34;76.91;101375.81;5062747;28;19932;-56
2023/07/19 06:15:16;;;;;;;;;;;;;;;18.37;76.78;101376.66;5065318;27;19924;-57
2023/07/19 06:17:42;;;;;;;;;;;;;;;18.44;76.35;101372.34;5061309;28;20277;-56
2023/07/19 06:20:10;;;;;;;;;;;;;;;18.61;76.13;101373.28;5060811;28;19945;-57
2023/07/19 06:22:35;;;;;;;;;;;;;;;18.72;77.32;101373.34;5064288;28;19929;-56
2023/07/19 06:25:00;;;;;;;;;;;;;;;18.80;76.13;101370.75;5063464;28;19927;-57
2023/07/19 06:27:26;;;;;;;;;;;;;;;18.90;76.43;101367.31;5064389;27;19969;-56
2023/07/19 06:29:51;;;;;;;;;;;;;;;19.12;75.71;101369.09;5061916;28;20427;-56
2023/07/19 06:32:16;;;;;;;;;;;;;;;19.26;74.87;101366.50;5064350;28;19921;-56
2023/07/19 06:34:42;;;;;;;;;;;;;;;19.48;74.98;101362.16;5063514;28;20374;-56
2023/07/19 06:37:07;;;;;;;;;;;;;;;20.03;73.48;101362.09;5065288;28;19979;-56
2023/07/19 06:39:33;;;;;;;;;;;;;;;20.57;71.85;101362.78;5048412;28;19913;-55
2023/07/19 06:41:58;;;;;;;;;;;;;;;20.96;68.51;101363.41;5061175;28;20319;-56
2023/07/19 06:44:23;;;;;;;;;;;;;;;21.07;69.84;101361.59;5064580;27;19927;-56
2023/07/19 06:46:48;;;;;;;;;;;;;;;21.44;67.36;101364.81;5065400;28;20082;-56
2023/07/19 06:49:14;;;;;;;;;;;;;;;21.76;66.32;101369.72;5065896;28;20381;-56
2023/07/19 06:51:39;;;;;;;;;;;;;;;22.26;65.04;101367.44;5065047;27;20281;-56
2023/07/19 06:54:04;;;;;;;;;;;;;;;22.59;65.74;101369.66;5063855;28;19932;-56
2023/07/19 06:56:29;;;;;;;;;;;;;;;22.64;64.09;101364.34;5065854;28;19968;-56
2023/07/19 06:58:55;;;;;;;;;;;;;;;22.55;65.36;101360.09;5061420;28;19925;-56
2023/07/19 07:01:20;;;;;;;;;;;;;;;22.43;62.40;101366.34;5065514;27;19939;-56
2023/07/19 07:03:45;;;;;;;;;;;;;;;22.34;65.00;101370.88;5064285;27;19917;-56
2023/07/19 07:06:11;;;;;;;;;;;;;;;22.43;62.93;101363.75;5062204;27;20278;-56
2023/07/19 07:08:36;;;;;;;;;;;;;;;22.48;64.25;101366.31;5065615;28;19916;-56
2023/07/19 07:11:04;;;;;;;;;;;;;;;22.47;63.01;101369.81;5058397;28;20305;-56
2023/07/19 07:13:29;;;;;;;;;;;;;;;22.42;62.32;101374.25;5061685;28;19931;-56
2023/07/19 07:15:54;;;;;;;;;;;;;;;22.18;62.77;101378.03;5056199;28;20328;-56
2023/07/19 07:18:20;;;;;;;;;;;;;;;21.93;63.83;101380.88;5047674;28;19921;-58
2023/07/19 07:20:45;;;;;;;;;;;;;;;21.73;64.50;101382.00;5065583;28;19921;-56
2023/07/19 07:23:10;;;;;;;;;;;;;;;21.63;64.18;101378.59;5063607;28;19924;-56
2023/07/19 07:25:36;;;;;;;;;;;;;;;21.45;65.17;101368.28;5064657;28;19917;-57
2023/07/19 07:28:01;;;;;;;;;;;;;;;21.38;65.25;101372.69;5061847;27;20012;-56
2023/07/19 07:30:27;;;;;;;;;;;;;;;21.29;65.34;101373.63;5062317;28;19977;-57
2023/07/19 07:32:52;;;;;;;;;;;;;;;21.22;65.59;101365.81;5063193;28;19927;-56
2023/07/19 07:35:18;;;;;;;;;;;;;;;21.16;65.92;101374.56;5060995;28;20416;-56
2023/07/19 07:37:43;;;;;;;;;;;;;;;21.13;66.21;101372.88;5061834;27;19969;-56
2023/07/19 07:40:10;;;;;;;;;;;;;;;21.16;65.53;101361.50;5061420;27;20302;-56
2023/07/19 07:42:36;;;;;;;;;;;;;;;21.16;65.05;101377.19;5063983;28;20004;-56
2023/07/19 07:45:01;;;;;;;;;;;;;;;21.13;65.05;101378.09;5045975;28;20055;-56
2023/07/19 07:47:28;;;;;;;;;;;;;;;21.07;65.30;101370.28;5064870;27;19968;-55
2023/07/19 07:49:54;;;;;;;;;;;;;;;21.06;65.54;101368.56;5063903;27;19920;-55
2023/07/19 07:52:20;;;;;;;;;;;;;;;21.07;65.74;101366.81;5064265;28;19920;-55
2023/07/19 07:54:45;;;;;;;;;;;;;;;21.04;65.78;101366.81;5065792;27;19912;-57
2023/07/19 07:57:11;;;;;;;;;;;;;;;21.06;65.75;101370.31;5062363;27;19924;-57
2023/07/19 07:59:36;;;;;;;;;;;;;;;21.12;65.85;101367.66;5064332;28;19921;-56
2023/07/19 08:02:01;;;;;;;;;;;;;;;21.13;65.61;101369.38;5044727;28;20283;-56
2023/07/19 08:04:27;;;;;;;;;;;;;;;21.07;64.84;101372.91;5063507;28;19923;-56
2023/07/19 08:06:53;;;;;;;;;;;;;;;21.05;65.74;101363.31;5063387;28;20065;-57
2023/07/19 08:09:18;;;;;;;;;;;;;;;21.15;65.68;101358.03;5063646;28;19931;-56
2023/07/19 08:11:43;;;;;;;;;;;;;;;21.59;65.01;101358.56;5064682;28;19925;-56
2023/07/19 08:14:08;;;;;;;;;;;;;;;21.98;64.11;101356.41;5057517;28;19920;-57
2023/07/19 08:16:34;;;;;;;;;;;;;;;22.13;63.53;101357.13;5061806;28;19978;-56
2023/07/19 08:18:59;;;;;;;;;;;;;;;22.32;62.39;101346.41;5055500;28;19925;-56
2023/07/19 08:21:25;;;;;;;;;;;;;;;22.56;61.88;101342.59;5061951;28;20012;-57
2023/07/19 08:23:53;;;;;;;;;;;;;;;22.64;61.62;101340.78;5064871;28;19927;-56
2023/07/19 08:26:18;;;;;;;;;;;;;;;22.40;60.97;101345.44;5062695;28;19920;-57
2023/07/19 08:28:44;;;;;;;;;;;;;;;22.31;62.72;101342.06;5045312;28;20343;-57
2023/07/19 08:31:10;;;;;;;;;;;;;;;22.39;62.10;101348.97;5045509;28;19924;-59
2023/07/19 08:33:35;;;;;;;;;;;;;;;22.53;60.87;101351.41;5061334;28;19921;-56
2023/07/19 08:36:00;;;;;;;;;;;;;;;22.60;61.46;101350.41;5061572;27;20015;-57
2023/07/19 08:38:25;;;;;;;;;;;;;;;22.66;59.83;101346.84;5060508;28;19917;-56
2023/07/19 08:40:58;;;;;;;;;;;;;;;22.64;60.10;101348.63;5061226;28;19946;-56
2023/07/19 08:43:25;;;;;;;;;;;;;;;22.47;60.85;101348.84;5060383;28;20006;-50
2023/07/19 08:45:50;;;;;;;;;;;;;;;22.33;61.09;101348.19;5063097;28;19955;-49
2023/07/19 08:48:16;;;;;;;;;;;;;;;22.42;62.09;101346.28;5063148;27;19944;-47
2023/07/19 08:50:42;;;;;;;;;;;;;;;22.81;61.13;101349.22;5065176;27;19975;-47
2023/07/19 08:53:07;;;;;;;;;;;;;;;23.13;60.25;101350.53;5062166;28;19920;-49
2023/07/19 08:55:33;;;;;;;;;;;;;;;23.20;59.74;101344.31;5063371;27;20271;-50
2023/07/19 08:57:59;;;;;;;;;;;;;;;23.20;60.51;101341.69;5045078;28;19916;-49
2023/07/19 09:00:27;;;;;;;;;;;;;;;23.45;58.96;101350.00;5062228;28;19920;-50
2023/07/19 09:02:53;;;;;;;;;;;;;;;23.69;57.54;101346.09;5045071;28;19921;-49
2023/07/19 09:05:18;;;;;;;;;;;;;;;23.69;58.09;101339.09;5061008;28;20498;-50
2023/07/19 09:07:46;;;;;;;;;;;;;;;23.43;58.27;101342.16;5062156;28;20366;-56
2023/07/19 09:10:11;;;;;;;;;;;;;;;23.29;58.99;101342.38;5060982;28;19920;-51
2023/07/19 09:12:37;;;;;;;;;;;;;;;23.24;59.60;101343.38;5062107;28;19979;-48
2023/07/19 09:15:04;;;;;;;;;;;;;;;23.14;58.85;101347.88;5061689;28;19924;-49
2023/07/19 09:17:29;;;;;;;;;;;;;;;23.05;59.44;101348.03;5060596;28;20407;-51
2023/07/19 09:19:54;;;;;;;;;;;;;;;22.97;58.75;101345.53;5059684;28;19920;-51
2023/07/19 09:22:20;;;;;;;;;;;;;;;22.90;60.06;101343.91;5063547;28;19924;-50
2023/07/19 09:25:01;;;;;;;;;;;;;;;22.92;59.90;101347.34;5062451;28;19946;-48
2023/07/19 09:27:27;;;;;;;;;;;;;;;22.90;59.72;101348.28;5061615;28;19924;-51
2023/07/19 09:29:52;;;;;;;;;;;;;;;22.87;60.34;101348.31;5062535;28;19917;-51
2023/07/19 09:32:17;;;;;;;;;;;;;;;22.97;60.23;101356.00;5062061;27;19924;-48
2023/07/19 09:34:44;;;;;;;;;;;;;;;23.08;60.43;101347.13;5063250;28;19925;-50
2023/07/19 09:37:10;;;;;;;;;;;;;;;23.05;60.08;101353.28;5062639;28;19959;-48
2023/07/19 09:39:35;;;;;;;;;;;;;;;22.93;60.56;101351.72;5065250;28;19993;-49
2023/07/19 09:42:01;;;;;;;;;;;;;;;22.70;61.03;101352.03;5062196;28;19924;-51
2023/07/19 09:44:26;;;;;;;;;;;;;;;22.43;62.07;101358.50;5064718;28;20281;-50
2023/07/19 09:46:53;;;;;;;;;;;;;;;22.28;62.42;101348.22;5062083;28;19921;-49
2023/07/19 09:49:18;;;;;;;;;;;;;;;22.26;62.65;101347.38;5061640;28;19989;-50
2023/07/19 09:51:43;;;;;;;;;;;;;;;22.35;62.50;101344.63;5064485;28;20439;-47
2023/07/19 09:54:10;;;;;;;;;;;;;;;22.66;62.53;101336.34;5067697;27;20442;-49
2023/07/19 09:56:36;;;;;;;;;;;;;;;22.98;61.21;101351.63;5066524;28;19973;-51
2023/07/19 09:59:03;;;;;;;;;;;;;;;23.10;60.15;101340.09;5061220;28;20000;-48
2023/07/19 10:01:28;;;;;;;;;;;;;;;23.22;59.67;101345.13;5065752;28;19984;-49
2023/07/19 10:03:54;;;;;;;;;;;;;;;23.42;57.82;101340.44;5064780;28;20386;-51
2023/07/19 10:06:25;;;;;;;;;;;;;;;23.57;56.04;101343.66;5046601;28;19924;-50
2023/07/19 10:08:50;;;;;;;;;;;;;;;23.58;56.36;101337.50;5062438;28;19920;-50
2023/07/19 10:11:23;;;;;;;;;;;;;;;23.60;57.08;101330.47;5062516;28;20314;-50
2023/07/19 10:13:56;;;;;;;;;;;;;;;23.71;56.04;101332.03;5063563;28;20003;-52
2023/07/19 10:16:33;;;;;;;;;;;;;;;23.75;54.95;101341.59;5064819;28;19916;-51
2023/07/19 10:19:12;;;;;;;;;;;;;;;23.68;52.36;101333.88;5062079;28;19924;-51
2023/07/19 10:21:37;;;;;;;;;;;;;;;23.53;53.30;101338.47;5048394;28;20402;-56
2023/07/19 10:24:06;;;;;;;;;;;;;;;23.48;53.35;101344.72;5048395;28;20003;-56
2023/07/19 10:26:34;;;;;;;;;;;;;;;23.43;51.98;101343.91;5067171;28;20073;-57
2023/07/19 10:29:00;;;;;;;;;;;;;;;23.45;53.06;101345.63;5065356;28;19921;-56
2023/07/19 10:31:26;;;;;;;;;;;;;;;23.41;53.14;101346.53;5066031;28;20366;-55
2023/07/19 10:33:53;;;;;;;;;;;;;;;23.55;53.41;101335.81;5066839;28;19923;-55
2023/07/19 10:36:18;;;;;;;;;;;;;;;23.81;52.61;101338.00;5064447;28;19916;-56
2023/07/19 10:38:43;;;;;;;;;;;;;;;23.99;53.35;101337.63;5060714;28;20413;-57
2023/07/19 10:41:11;;;;;;;;;;;;;;;24.13;50.34;101336.47;5063605;28;19925;-56
2023/07/19 10:43:37;;;;;;;;;;;;;;;24.18;50.76;101340.75;5062060;28;20323;-56
2023/07/19 10:46:04;;;;;;;;;;;;;;;24.30;51.77;101337.00;5064929;28;20007;-56
2023/07/19 10:48:33;;;;;;;;;;;;;;;24.43;50.47;101345.50;5062304;28;19972;-56
2023/07/19 10:51:00;;;;;;;;;;;;;;;24.44;50.92;101337.59;5064985;27;20361;-56
2023/07/19 10:53:26;;;;;;;;;;;;;;;24.31;51.49;101341.34;5065738;28;20003;-56
2023/07/19 10:55:55;;;;;;;;;;;;;;;24.20;51.35;101335.44;5064707;28;20457;-56
2023/07/19 10:58:21;;;;;;;;;;;;;;;24.12;50.88;101333.00;5063829;28;19967;-56
2023/07/19 11:00:46;;;;;;;;;;;;;;;24.19;50.30;101338.97;5066026;28;19931;-56
2023/07/19 11:03:13;;;;;;;;;;;;;;;24.14;51.34;101343.47;5065049;28;20418;-56
2023/07/19 11:05:40;;;;;;;;;;;;;;;24.14;51.23;101335.56;5064658;28;19965;-56
2023/07/19 11:08:05;;;;;;;;;;;;;;;24.02;51.56;101340.19;5063960;28;19969;-56
2023/07/19 11:10:30;;;;;;;;;;;;;;;23.90;52.00;101348.31;5062161;28;19987;-55
2023/07/19 11:12:56;;;;;;;;;;;;;;;23.70;52.33;101345.19;5043741;28;19924;-55
2023/07/19 11:15:21;;;;;;;;;;;;;;;23.54;53.74;101341.97;5064307;28;19916;-56
2023/07/19 11:17:48;;;;;;;;;;;;;;;23.35;57.61;101338.78;5061772;28;19968;-55
2023/07/19 11:20:26;;;;;;;;;;;;;;;23.22;59.41;101332.88;5063873;28;19979;-56
2023/07/19 11:22:51;;;;;;;;;;;;;;;23.17;57.74;101339.09;5059722;28;20020;-55
2023/07/19 11:25:17;;;;;;;;;;;;;;;23.33;57.56;101347.59;5063846;28;20015;-58
2023/07/19 11:27:42;;;;;;;;;;;;;;;23.53;56.49;101335.84;5066832;28;19916;-56
2023/07/19 11:30:07;;;;;;;;;;;;;;;23.63;56.64;101325.22;5066144;28;19958;-56
2023/07/19 11:32:32;;;;;;;;;;;;;;;23.63;54.43;101330.47;5046687;28;19936;-56
2023/07/19 11:34:59;;;;;;;;;;;;;;;23.81;54.00;101325.72;5065508;28;19938;-56
2023/07/19 11:37:42;;;;;;;;;;;;;;;24.00;53.72;101317.47;5065541;28;20386;-56
2023/07/19 11:40:13;;;;;;;;;;;;;;;24.22;53.01;101320.53;5063057;28;19925;-56
2023/07/19 11:42:44;;;;;;;;;;;;;;;24.46;52.16;101320.03;5062928;28;19923;-55
2023/07/19 11:45:11;;;;;;;;;;;;;;;24.67;50.14;101317.81;5061111;27;19920;-55
2023/07/19 11:47:36;;;;;;;;;;;;;;;24.82;50.08;101315.69;5062609;28;20073;-55
2023/07/19 11:50:03;;;;;;;;;;;;;;;25.06;47.27;101319.53;5062748;28;20007;-56
2023/07/19 11:52:28;;;;;;;;;;;;;;;24.93;48.98;101314.56;5077734;28;20097;-57
2023/07/19 11:54:55;;;;;;;;;;;;;;;24.75;50.05;101321.13;5065512;27;20026;-56
2023/07/19 11:57:20;;;;;;;;;;;;;;;24.70;49.43;101317.75;5063417;28;19964;-57
2023/07/19 11:59:48;;;;;;;;;;;;;;;24.85;47.92;101312.13;5065755;28;19948;-57
2023/07/19 12:02:13;;;;;;;;;;;;;;;24.99;47.65;101312.63;5049253;28;20393;-57
2023/07/19 12:04:38;;;;;;;;;;;;;;;25.07;48.09;101313.38;5061443;28;19921;-57
2023/07/19 12:07:06;;;;;;;;;;;;;;;25.05;47.44;101312.50;5055096;28;20235;-57
2023/07/19 12:09:31;;;;;;;;;;;;;;;24.96;48.90;101315.34;5043528;28;19932;-49
2023/07/19 12:11:57;;;;;;;;;;;;;;;24.86;49.27;101319.97;5063228;28;19968;-50
2023/07/19 12:14:23;;;;;;;;;;;;;;;24.71;50.43;101319.47;5060042;28;19967;-49
2023/07/19 12:16:48;;;;;;;;;;;;;;;24.60;50.16;101328.47;5060579;28;19917;-49
2023/07/19 12:19:15;;;;;;;;;;;;;;;24.57;50.33;101323.28;5056927;28;19925;-50
2023/07/19 12:21:40;;;;;;;;;;;;;;;24.48;49.72;101323.50;5060755;28;19924;-47
2023/07/19 12:24:05;;;;;;;;;;;;;;;24.34;49.80;101329.06;5057247;27;20872;-49
2023/07/19 12:26:31;;;;;;;;;;;;;;;24.29;49.98;101330.03;5055289;28;19943;-50
2023/07/19 12:28:56;;;;;;;;;;;;;;;24.22;49.81;101326.66;5065199;28;19923;-47